LFBP/PUF METAR and TAF weather

Enter ICAO airport designator
Station Type Date Time Source
LFBP METAR 2020/07/14 16:00 UTC NOAA

LFBP 141600Z AUTO 28010KT 240V310 9999 BKN047 BKN200 22/14 Q1019 NOSIG


Station Type Date Time Source
LFBP Decoded METAR 2020/07/14 16:00 UTC NOAA

Pau, France (LFBP) 43-23N 000-25W 185M
Jul 14, 2020 - 12:00 PM EDT / 2020.07.14 1600 UTC
Wind: from the W (280 degrees) at 12 MPH (10 KT) (direction variable):0
Visibility: greater than 7 mile(s):0
Sky conditions: mostly cloudy
Temperature: 71 F (22 C)
Dew Point: 57 F (14 C)
Relative Humidity: 60%
Pressure (altimeter): 30.09 in. Hg (1019 hPa)
ob: LFBP 141600Z AUTO 28010KT 240V310 9999 BKN047 BKN200 22/14 Q1019 NOSIG
cycle: 16

Station Type Date Time Source
LFBP TAF 2020/07/14 15:50 UTC NOAA

TAF
AMD LFBP 141545Z 1415/1512 28010KT 9999 SCT045
BECMG 1418/1420 CAVOK
BECMG 1500/1502 24005KT BKN020 PROB30
TEMPO 1504/1512 -RA BKN014

Example: see airport list